createdAt,value
2023-03-21T00:04:26.023Z,62.27
2023-03-21T00:09:28.393Z,62.75
2023-03-21T00:14:31.074Z,62.38
2023-03-21T00:19:33.095Z,62.48
2023-03-21T00:24:36.085Z,62.27
2023-03-21T00:29:38.030Z,61.71
2023-03-21T00:34:43.278Z,61.74
2023-03-21T00:39:50.956Z,61.22
2023-03-21T00:44:53.985Z,60.95
2023-03-21T00:49:56.117Z,60.71
2023-03-21T00:54:58.113Z,60.82
2023-03-21T00:59:59.909Z,60.76
2023-03-21T01:05:01.870Z,61.25
2023-03-21T01:10:04.209Z,61.38
2023-03-21T01:15:07.289Z,61.73
2023-03-21T01:20:10.892Z,61.32
2023-03-21T01:25:22.458Z,60.67
2023-03-21T01:30:28.691Z,60.25
2023-03-21T01:35:41.023Z,60.47
2023-03-21T01:40:51.422Z,60.25
2023-03-21T01:46:25.486Z,60.45
2023-03-21T01:51:44.205Z,60.39
2023-03-21T01:56:48.003Z,61.02
2023-03-21T02:01:52.747Z,60.95
2023-03-21T02:07:13.890Z,61.75
2023-03-21T02:12:21.139Z,61.38
2023-03-21T02:17:46.577Z,61.58
2023-03-21T02:23:02.932Z,61.43
2023-03-21T02:28:23.007Z,61.28
2023-03-21T02:33:56.086Z,60.62
2023-03-21T02:39:14.182Z,60.03
2023-03-21T02:44:44.453Z,60.45
2023-03-21T02:49:49.699Z,60.36
2023-03-21T02:54:52.383Z,59.65
2023-03-21T03:00:10.697Z,59.93
2023-03-21T03:05:21.878Z,59.03
2023-03-21T03:10:43.880Z,59.53
2023-03-21T03:16:10.225Z,59.41
2023-03-21T03:21:19.787Z,59.58
2023-03-21T03:26:34.873Z,59.27
2023-03-21T03:31:41.833Z,58.74
2023-03-21T03:36:47.802Z,58.75
2023-03-21T03:42:28.088Z,58.77
2023-03-21T03:47:56.416Z,58.81
2023-03-21T03:53:25.191Z,58.34
2023-03-21T03:58:44.525Z,58.39
2023-03-21T04:03:54.587Z,58.65
2023-03-21T04:09:00.139Z,58.81
2023-03-21T04:14:05.056Z,58.53
2023-03-21T04:19:09.707Z,58.44
2023-03-21T04:24:13.896Z,58.64
2023-03-21T04:29:18.040Z,58.40
2023-03-21T04:34:40.341Z,58.40
2023-03-21T04:39:43.055Z,58.25
2023-03-21T04:44:46.379Z,58.70
2023-03-21T04:49:48.259Z,58.29
2023-03-21T04:54:50.155Z,58.85
2023-03-21T04:59:53.422Z,58.28
2023-03-21T05:04:57.570Z,58.48
2023-03-21T05:10:01.329Z,58.45
2023-03-21T05:15:05.722Z,58.30
2023-03-21T05:20:09.824Z,58.79
2023-03-21T05:25:13.254Z,58.64
2023-03-21T05:30:36.943Z,59.49
2023-03-21T05:35:40.283Z,58.43
2023-03-21T05:40:49.961Z,58.29
2023-03-21T05:45:53.003Z,58.88
2023-03-21T05:50:55.910Z,59.03
2023-03-21T05:55:58.758Z,59.73
2023-03-21T06:01:16.409Z,59.17
2023-03-21T06:06:25.858Z,59.73
2023-03-21T06:11:36.855Z,59.28
2023-03-21T06:17:02.250Z,59.32
2023-03-21T06:22:06.116Z,59.51
2023-03-21T06:27:10.547Z,59.65
2023-03-21T06:32:32.582Z,60.24
2023-03-21T06:37:43.534Z,59.56
2023-03-21T06:42:45.897Z,59.60
2023-03-21T06:47:49.858Z,59.59
2023-03-21T06:53:11.908Z,59.66
2023-03-21T06:58:34.066Z,59.51
2023-03-21T07:03:37.870Z,59.37
2023-03-21T07:08:41.533Z,58.98
2023-03-21T07:13:43.913Z,59.37
2023-03-21T07:18:46.679Z,59.54
2023-03-21T07:23:50.740Z,59.54
2023-03-21T07:28:52.576Z,59.65
2023-03-21T07:33:54.387Z,59.87
2023-03-21T07:38:57.578Z,59.40
2023-03-21T07:43:59.500Z,59.67
2023-03-21T07:49:09.019Z,59.60
2023-03-21T07:54:10.916Z,59.78
2023-03-21T07:59:12.673Z,60.05
2023-03-21T08:04:14.754Z,59.36
2023-03-21T08:09:16.712Z,59.30
2023-03-21T08:14:18.542Z,59.29
2023-03-21T08:19:21.872Z,59.55
2023-03-21T08:24:24.138Z,59.35
2023-03-21T08:29:26.198Z,59.43
2023-03-21T08:34:28.006Z,58.50
2023-03-21T08:39:29.854Z,58.36
2023-03-21T08:44:31.626Z,58.30
2023-03-21T08:49:34.819Z,58.37
2023-03-21T08:54:36.634Z,58.14
2023-03-21T08:59:38.758Z,57.83
2023-03-21T09:04:41.192Z,57.95
2023-03-21T09:09:43.696Z,58.05
2023-03-21T09:14:45.594Z,57.62
2023-03-21T09:19:47.423Z,57.25
2023-03-21T09:24:50.303Z,57.00
2023-03-21T09:29:52.715Z,56.03
2023-03-21T09:34:55.673Z,56.02
2023-03-21T09:39:58.371Z,55.45
2023-03-21T09:45:10.789Z,55.39
2023-03-21T09:50:32.069Z,55.40
2023-03-21T09:55:36.653Z,55.08
2023-03-21T10:00:43.353Z,54.96
2023-03-21T10:05:46.963Z,54.86
2023-03-21T10:10:52.016Z,54.75
2023-03-21T10:16:21.422Z,54.85
2023-03-21T10:21:56.645Z,54.41
2023-03-21T10:26:50.596Z,54.39
2023-03-21T10:31:53.638Z,54.35
2023-03-21T10:36:55.445Z,54.29
2023-03-21T10:41:57.271Z,54.26
2023-03-21T10:47:07.970Z,52.65
2023-03-21T10:52:12.693Z,52.48
2023-03-21T10:57:22.332Z,52.36
2023-03-21T11:02:37.179Z,51.97
2023-03-21T11:07:39.185Z,52.16
2023-03-21T11:12:46.651Z,51.78
2023-03-21T11:17:48.464Z,51.27
2023-03-21T11:22:55.400Z,50.75
2023-03-21T11:27:57.404Z,50.20
2023-03-21T11:33:03.743Z,51.40
2023-03-21T11:38:23.525Z,52.17
2023-03-21T11:43:27.094Z,52.12
2023-03-21T11:48:29.830Z,52.00
2023-03-21T11:53:46.712Z,51.99
2023-03-21T11:59:06.995Z,52.08
2023-03-21T12:04:15.248Z,52.00
2023-03-21T12:09:42.033Z,51.88
2023-03-21T12:15:14.467Z,51.69
2023-03-21T12:20:40.355Z,51.59
2023-03-21T12:25:54.892Z,51.17
2023-03-21T12:31:29.905Z,51.15
2023-03-21T12:37:09.227Z,52.21
2023-03-21T12:42:13.753Z,53.00
2023-03-21T12:47:24.421Z,51.52
2023-03-21T12:52:34.127Z,51.64
2023-03-21T12:57:51.144Z,51.27
2023-03-21T13:03:46.601Z,51.39
2023-03-21T13:08:58.797Z,52.15
2023-03-21T13:14:25.425Z,52.25
2023-03-21T13:19:44.815Z,52.35
2023-03-21T13:24:48.821Z,51.19
2023-03-21T13:29:53.784Z,50.63
2023-03-21T13:34:58.179Z,50.68
2023-03-21T13:40:19.566Z,50.63
2023-03-21T13:45:29.804Z,50.48
2023-03-21T13:50:52.201Z,50.78
2023-03-21T13:56:11.964Z,50.38
2023-03-21T14:01:28.226Z,50.39
2023-03-21T14:06:55.096Z,50.60
2023-03-21T14:12:03.866Z,50.32
2023-03-21T14:17:22.916Z,50.22
2023-03-21T14:22:24.796Z,50.27
2023-03-21T14:27:30.954Z,50.42
2023-03-21T14:32:32.879Z,50.47
2023-03-21T14:37:41.673Z,50.46
2023-03-21T14:42:48.115Z,50.46
2023-03-21T14:48:12.756Z,50.63
2023-03-21T14:53:20.094Z,50.39
2023-03-21T14:58:21.969Z,50.73
2023-03-21T15:03:26.986Z,50.98
2023-03-21T15:08:29.299Z,50.66
2023-03-21T15:13:46.122Z,50.52
2023-03-21T15:18:48.501Z,50.64
2023-03-21T15:23:55.896Z,50.91
2023-03-21T15:28:59.576Z,50.80
2023-03-21T15:34:01.923Z,50.92
2023-03-21T15:39:08.957Z,50.93
2023-03-21T15:44:15.172Z,51.01
2023-03-21T15:49:16.961Z,50.99
2023-03-21T15:54:26.561Z,50.84
2023-03-21T15:59:33.173Z,50.85
2023-03-21T16:05:14.767Z,51.15
2023-03-21T16:10:27.368Z,51.17
2023-03-21T16:15:29.914Z,51.42
2023-03-21T16:20:37.987Z,51.59
2023-03-21T16:25:41.045Z,51.12
2023-03-21T16:30:43.206Z,51.32
2023-03-21T16:35:45.133Z,51.32
2023-03-21T16:40:47.111Z,51.23
2023-03-21T16:45:49.031Z,51.32
2023-03-21T16:50:50.926Z,51.46
2023-03-21T16:55:54.099Z,51.23
2023-03-21T17:00:56.335Z,51.50
2023-03-21T17:05:58.149Z,51.74
2023-03-21T17:11:00.116Z,51.71
2023-03-21T17:16:02.059Z,51.72
2023-03-21T17:21:12.319Z,51.85
2023-03-21T17:26:18.392Z,51.85
2023-03-21T17:31:23.949Z,51.71
2023-03-21T17:36:32.205Z,52.29
2023-03-21T17:41:34.129Z,52.16
2023-03-21T17:46:37.355Z,52.03
2023-03-21T17:51:39.737Z,51.96
2023-03-21T17:56:42.241Z,52.25
2023-03-21T18:01:44.123Z,52.12
2023-03-21T18:06:46.088Z,52.22
2023-03-21T18:11:47.980Z,52.00
2023-03-21T18:16:50.746Z,52.13
2023-03-21T18:21:52.573Z,52.24
2023-03-21T18:26:54.587Z,52.08
2023-03-21T18:32:06.975Z,52.00
2023-03-21T18:37:13.138Z,52.15
2023-03-21T18:42:19.133Z,52.08
2023-03-21T18:47:22.552Z,52.17
2023-03-21T18:52:26.413Z,52.25
2023-03-21T18:57:36.459Z,52.14
2023-03-21T19:02:47.123Z,51.57
2023-03-21T19:07:49.846Z,51.91
2023-03-21T19:12:54.689Z,51.11
2023-03-21T19:18:30.630Z,51.12
2023-03-21T19:23:18.840Z,50.97
2023-03-21T19:28:20.958Z,50.68
2023-03-21T19:33:24.526Z,50.53
2023-03-21T19:38:26.524Z,50.70
2023-03-21T19:43:33.049Z,50.68
2023-03-21T19:48:38.112Z,50.97
2023-03-21T19:53:40.546Z,50.63
2023-03-21T19:58:42.591Z,50.71
2023-03-21T20:03:44.687Z,50.86
2023-03-21T20:14:09.218Z,50.66
2023-03-21T20:19:13.472Z,51.06
2023-03-21T20:24:16.936Z,50.83
2023-03-21T20:34:40.680Z,50.60
2023-03-21T20:39:42.752Z,50.89
2023-03-21T20:44:57.730Z,50.74
2023-03-21T20:50:00.422Z,50.88
2023-03-21T20:55:03.078Z,50.68
2023-03-21T21:00:13.617Z,50.17
2023-03-21T21:05:28.728Z,50.16
2023-03-21T21:10:33.565Z,50.05
2023-03-21T21:15:37.507Z,50.10
2023-03-21T21:20:40.315Z,49.95
2023-03-21T21:25:42.221Z,49.85
2023-03-21T21:30:44.050Z,50.10
2023-03-21T21:35:48.088Z,49.83
2023-03-21T21:40:52.094Z,49.84
2023-03-21T21:45:54.058Z,49.64
2023-03-21T21:50:55.888Z,49.47
2023-03-21T21:55:57.726Z,49.54
2023-03-21T22:01:01.942Z,49.79
2023-03-21T22:06:07.365Z,50.45
2023-03-21T22:11:09.104Z,50.54
2023-03-21T22:16:12.131Z,50.95
2023-03-21T22:21:14.016Z,51.76
2023-03-21T22:26:15.861Z,53.81
2023-03-21T22:31:17.970Z,55.35
2023-03-21T22:36:20.336Z,56.25
2023-03-21T22:41:22.151Z,56.60
2023-03-21T22:46:24.035Z,57.45
2023-03-21T22:51:26.024Z,57.89
2023-03-21T22:56:27.818Z,57.99
2023-03-21T23:01:29.693Z,58.42
2023-03-21T23:06:31.905Z,58.11
2023-03-21T23:11:33.908Z,58.02
2023-03-21T23:16:38.638Z,58.21
2023-03-21T23:21:40.615Z,57.66
2023-03-21T23:26:42.788Z,57.71
2023-03-21T23:31:44.657Z,57.46
2023-03-21T23:36:46.502Z,57.34
2023-03-21T23:41:48.259Z,57.24
2023-03-21T23:46:50.057Z,57.22
2023-03-21T23:51:51.975Z,57.03
2023-03-21T23:56:53.733Z,56.72
